Time;durP1;ratioP1;P1;durP2;ratioP2;P2;SDS_P1;SDS_P2;PMS_P1;PMS_P2;Temp;Humidity;BMP_temperature;BMP_pressure;BME280_temperature;BME280_humidity;BME280_pressure;Samples;Min_cycle;Max_cycle;Signal;HPM_P1;HPM_P2
2024/03/15 05:00:52;;;;;;;5.17;3.13;;;7.50;97.30;;;;;;5885483;23;20485;-84
2024/03/15 05:03:17;;;;;;;5.13;2.17;;;7.60;97.30;;;;;;4992839;28;20445;-86
2024/03/15 05:05:43;;;;;;;1.70;1.60;;;7.60;97.30;;;;;;4968405;28;20228;-87
2024/03/15 05:08:08;;;;;;;2.80;2.60;;;7.60;97.30;;;;;;4959335;28;20182;-88
2024/03/15 05:10:34;;;;;;;4.50;3.20;;;7.60;97.30;;;;;;4967956;28;20182;-88
2024/03/15 05:13:00;;;;;;;7.53;4.53;;;7.60;97.30;;;;;;4966258;28;20179;-84
2024/03/15 05:15:26;;;;;;;5.10;3.97;;;7.60;97.30;;;;;;4977508;28;20465;-86
2024/03/15 05:17:51;;;;;;;4.17;2.40;;;7.60;97.30;;;;;;4971076;28;20186;-86
2024/03/15 05:20:18;;;;;;;3.00;2.80;;;7.60;97.30;;;;;;4969841;28;20261;-84
2024/03/15 05:22:44;;;;;;;2.37;2.20;;;7.60;97.30;;;;;;4969083;28;20179;-82
2024/03/15 05:25:13;;;;;;;5.43;4.03;;;7.60;97.30;;;;;;4969721;28;20433;-83
2024/03/15 05:27:40;;;;;;;7.80;2.20;;;7.60;97.30;;;;;;4965751;28;20670;-86
2024/03/15 05:30:09;;;;;;;4.40;1.83;;;7.60;97.30;;;;;;4968978;28;20432;-85
2024/03/15 05:32:35;;;;;;;2.53;2.33;;;7.50;97.30;;;;;;4959853;28;20502;-80
2024/03/15 05:35:04;;;;;;;7.00;2.33;;;7.50;97.30;;;;;;4969076;28;20449;-82
2024/03/15 05:37:30;;;;;;;2.07;1.93;;;7.60;97.30;;;;;;4959663;28;20465;-87
2024/03/15 05:39:56;;;;;;;3.00;2.80;;;7.60;97.30;;;;;;4943501;28;21017;-87
2024/03/15 05:42:31;;;;;;;4.50;3.20;;;7.70;97.30;;;;;;4971705;28;20521;-87
2024/03/15 05:44:57;;;;;;;5.80;4.27;;;7.70;97.30;;;;;;4964913;28;20278;-85
2024/03/15 05:47:22;;;;;;;3.20;3.07;;;7.80;97.30;;;;;;4957242;28;20446;-86
2024/03/15 05:49:48;;;;;;;1.57;1.50;;;7.80;97.30;;;;;;4964401;28;20191;-87
2024/03/15 05:52:14;;;;;;;4.83;3.10;;;7.90;97.30;;;;;;4958526;28;20199;-86
2024/03/15 05:54:40;;;;;;;3.33;2.10;;;7.90;97.30;;;;;;4968643;28;20209;-86
2024/03/15 05:57:07;;;;;;;4.83;3.17;;;8.00;97.30;;;;;;4962743;28;20426;-85
2024/03/15 05:59:33;;;;;;;6.23;3.17;;;8.00;97.30;;;;;;4963923;28;20417;-87
2024/03/15 06:01:59;;;;;;;1.53;1.43;;;8.00;97.30;;;;;;4960933;28;20461;-87
2024/03/15 06:04:25;;;;;;;3.07;2.67;;;8.00;97.30;;;;;;4980871;28;20417;-84
2024/03/15 06:06:53;;;;;;;3.47;2.30;;;8.10;97.30;;;;;;4982271;28;20413;-87
2024/03/15 06:09:19;;;;;;;5.60;3.67;;;8.20;97.30;;;;;;4976050;28;20422;-83
2024/03/15 06:11:45;;;;;;;3.70;3.50;;;8.20;97.30;;;;;;4972929;23;20495;-64
2024/03/15 06:14:11;;;;;;;1.23;1.20;;;8.30;97.30;;;;;;4985519;28;20517;-63
2024/03/15 06:16:40;;;;;;;4.40;2.77;;;8.40;97.30;;;;;;4965998;28;20243;-64
2024/03/15 06:19:06;;;;;;;7.90;2.63;;;8.40;97.30;;;;;;4985069;28;20424;-63
2024/03/15 06:21:33;;;;;;;3.40;3.20;;;8.40;97.30;;;;;;4977141;28;20449;-63
2024/03/15 06:24:00;;;;;;;3.90;3.07;;;8.50;97.30;;;;;;4960559;28;20434;-63
2024/03/15 06:26:26;;;;;;;10.90;3.53;;;8.50;97.30;;;;;;4962880;28;20473;-63
2024/03/15 06:28:55;;;;;;;3.70;3.50;;;8.60;97.30;;;;;;4940185;28;20439;-63
2024/03/15 06:31:21;;;;;;;1.97;1.87;;;8.60;97.30;;;;;;4962319;28;20442;-63
2024/03/15 06:33:49;;;;;;;6.40;3.17;;;8.70;97.30;;;;;;4946064;28;20485;-64
2024/03/15 06:36:19;;;;;;;3.87;2.13;;;8.70;97.30;;;;;;4974634;28;20250;-64
2024/03/15 06:43:58;;;;;;;5.23;2.30;;;8.90;97.30;;;;;;4972563;28;20424;-63
2024/03/15 06:46:41;;;;;;;4.03;2.77;;;9.00;97.30;;;;;;4953349;28;20463;-63
2024/03/15 06:49:12;;;;;;;2.90;2.70;;;9.00;97.30;;;;;;4973403;28;20425;-64
2024/03/15 06:54:24;;;;;;;6.90;4.40;;;9.20;97.30;;;;;;4973122;28;20444;-63
2024/03/15 06:56:50;;;;;;;8.87;3.83;;;9.30;97.30;;;;;;4946505;28;20450;-64
2024/03/15 06:59:17;;;;;;;2.80;2.40;;;9.40;97.30;;;;;;4976828;28;20457;-63
2024/03/15 07:01:44;;;;;;;5.03;4.73;;;9.50;97.30;;;;;;4950406;28;20455;-64
2024/03/15 07:04:10;;;;;;;5.50;2.67;;;9.50;97.30;;;;;;4953305;28;20500;-63
2024/03/15 07:06:35;;;;;;;3.40;3.20;;;9.60;97.30;;;;;;4974959;28;20507;-64
2024/03/15 07:09:04;;;;;;;4.70;2.90;;;9.70;97.30;;;;;;4959103;28;20658;-63
2024/03/15 07:11:33;;;;;;;8.33;2.90;;;9.80;97.30;;;;;;4972289;28;20650;-63
2024/03/15 07:14:02;;;;;;;5.53;3.77;;;9.90;97.30;;;;;;4955823;28;20495;-64
2024/03/15 07:16:29;;;;;;;13.50;4.37;;;9.90;97.30;;;;;;4973683;28;20566;-64
2024/03/15 07:18:55;;;;;;;11.13;3.80;;;9.90;97.30;;;;;;4965352;28;21041;-64
2024/03/15 07:21:22;;;;;;;5.67;2.60;;;10.00;97.30;;;;;;4965599;28;20827;-64
2024/03/15 07:23:47;;;;;;;7.60;4.20;;;10.10;97.30;;;;;;4949383;28;20441;-64
2024/03/15 07:26:14;;;;;;;5.40;3.50;;;10.10;97.30;;;;;;4964508;28;20426;-64
2024/03/15 07:28:41;;;;;;;6.43;3.10;;;10.20;97.30;;;;;;4959207;28;20213;-64
2024/03/15 07:31:06;;;;;;;9.70;4.70;;;10.30;97.30;;;;;;4954034;28;20858;-64
2024/03/15 07:33:32;;;;;;;5.73;3.00;;;10.40;97.30;;;;;;4960038;28;20438;-64
2024/03/15 07:36:01;;;;;;;3.63;2.10;;;10.60;97.30;;;;;;4961436;28;20202;-64
2024/03/15 07:38:27;;;;;;;4.90;2.07;;;10.70;97.30;;;;;;4944436;28;20182;-64
2024/03/15 07:40:52;;;;;;;10.93;6.10;;;10.90;97.30;;;;;;4958773;28;20506;-64
2024/03/15 07:43:18;;;;;;;5.13;3.07;;;11.00;97.30;;;;;;4965618;28;20421;-64
2024/03/15 07:45:43;;;;;;;5.83;4.53;;;11.00;97.30;;;;;;4942098;28;20213;-64
2024/03/15 07:48:09;;;;;;;4.17;2.43;;;11.10;97.30;;;;;;4947409;28;20187;-64
2024/03/15 07:50:36;;;;;;;6.90;2.60;;;11.10;97.30;;;;;;4969748;28;20209;-64
2024/03/15 07:53:03;;;;;;;3.67;3.47;;;11.20;97.30;;;;;;4961194;28;20501;-64
2024/03/15 07:55:28;;;;;;;3.23;2.60;;;11.30;97.30;;;;;;4967988;28;20465;-64
2024/03/15 07:57:54;;;;;;;4.80;2.17;;;11.40;97.30;;;;;;4947342;28;20452;-64
2024/03/15 08:00:20;;;;;;;5.13;4.20;;;11.50;97.30;;;;;;4951010;28;20225;-65
2024/03/15 08:02:46;;;;;;;2.17;2.00;;;11.60;97.30;;;;;;4944088;28;20187;-64
2024/03/15 08:05:13;;;;;;;4.30;3.20;;;11.60;97.30;;;;;;4954277;28;20839;-64
2024/03/15 08:07:41;;;;;;;3.90;3.00;;;11.70;97.30;;;;;;4963775;28;20182;-64
2024/03/15 08:10:10;;;;;;;5.03;4.30;;;11.70;97.30;;;;;;4963693;28;20427;-64
2024/03/15 08:12:37;;;;;;;4.50;2.60;;;11.80;97.30;;;;;;4944957;28;20536;-64
2024/03/15 08:15:04;;;;;;;3.80;2.57;;;12.00;97.30;;;;;;4946717;28;20501;-64
2024/03/15 08:17:30;;;;;;;7.93;3.77;;;12.10;97.30;;;;;;4954176;28;20521;-65
2024/03/15 08:19:55;;;;;;;9.70;4.10;;;12.30;97.30;;;;;;4968162;28;20521;-64
2024/03/15 08:22:21;;;;;;;3.33;2.60;;;12.40;97.30;;;;;;4945164;28;20689;-64
2024/03/15 08:24:47;;;;;;;4.40;4.10;;;12.60;97.30;;;;;;4969443;28;20688;-64
2024/03/15 08:27:12;;;;;;;8.10;3.97;;;12.80;97.30;;;;;;4963389;28;20268;-64
2024/03/15 08:29:39;;;;;;;5.80;3.30;;;13.00;97.30;;;;;;4956091;28;20232;-64
2024/03/15 08:32:07;;;;;;;6.70;4.50;;;13.10;97.30;;;;;;4957160;28;20588;-64
2024/03/15 08:34:34;;;;;;;2.93;2.30;;;13.30;97.30;;;;;;4970439;28;20424;-64
2024/03/15 08:36:59;;;;;;;4.00;3.07;;;13.50;97.30;;;;;;4971686;28;20420;-64
2024/03/15 08:39:25;;;;;;;8.63;3.67;;;13.50;97.30;;;;;;4972024;28;20649;-65
2024/03/15 08:41:51;;;;;;;4.43;3.70;;;13.60;97.30;;;;;;4972467;28;20198;-64
2024/03/15 08:44:16;;;;;;;4.57;3.13;;;13.50;97.30;;;;;;4954254;28;20189;-64
2024/03/15 08:46:43;;;;;;;4.90;3.13;;;13.60;97.30;;;;;;4962349;28;20545;-64
2024/03/15 08:49:10;;;;;;;4.00;3.03;;;13.80;97.30;;;;;;4971765;28;20182;-65
2024/03/15 08:51:37;;;;;;;3.57;3.30;;;14.10;97.30;;;;;;4966740;28;20442;-64
2024/03/15 08:54:04;;;;;;;4.67;2.90;;;14.20;97.30;;;;;;4966826;28;20414;-64
2024/03/15 08:56:30;;;;;;;3.80;2.70;;;14.30;97.30;;;;;;4971790;28;20461;-65
2024/03/15 08:58:58;;;;;;;3.40;3.20;;;14.40;97.30;;;;;;4971747;28;20514;-63
2024/03/15 09:01:32;;;;;;;6.53;3.43;;;14.60;97.30;;;;;;4970827;28;20507;-64
2024/03/15 09:04:01;;;;;;;13.20;5.83;;;14.80;97.30;;;;;;4957778;28;20845;-63
2024/03/15 09:06:30;;;;;;;5.17;3.50;;;14.90;97.30;;;;;;4971122;28;20429;-64
2024/03/15 09:08:56;;;;;;;7.50;3.33;;;15.00;97.30;;;;;;4958402;28;20418;-64
2024/03/15 09:11:22;;;;;;;5.13;2.63;;;15.10;97.30;;;;;;4953447;28;20852;-64
2024/03/15 09:13:49;;;;;;;6.37;3.10;;;15.10;97.30;;;;;;4971956;28;20417;-64
2024/03/15 09:16:14;;;;;;;9.93;2.93;;;15.10;97.30;;;;;;4970896;28;20190;-64
2024/03/15 09:18:41;;;;;;;6.70;3.43;;;15.40;97.30;;;;;;4971755;28;20492;-64
2024/03/15 09:21:07;;;;;;;3.83;3.67;;;15.40;97.30;;;;;;4971317;28;20678;-64
2024/03/15 09:23:33;;;;;;;4.50;3.60;;;15.60;97.30;;;;;;4971634;28;20410;-64
2024/03/15 09:25:59;;;;;;;7.20;4.10;;;15.70;97.30;;;;;;4971206;28;20425;-64
2024/03/15 09:28:30;;;;;;;4.10;2.67;;;15.80;97.30;;;;;;4962453;28;20213;-64
2024/03/15 09:30:57;;;;;;;3.50;2.43;;;15.90;97.30;;;;;;4953757;28;20460;-64
2024/03/15 09:33:27;;;;;;;3.40;2.60;;;15.90;97.30;;;;;;4965345;28;20426;-64
2024/03/15 09:35:53;;;;;;;8.60;3.90;;;15.90;97.30;;;;;;4957162;28;20462;-64
2024/03/15 09:38:19;;;;;;;7.70;3.00;;;15.90;97.30;;;;;;4950931;28;20743;-64
2024/03/15 09:40:44;;;;;;;5.87;3.30;;;16.20;97.30;;;;;;4970799;28;20441;-65
2024/03/15 09:43:17;;;;;;;6.97;4.30;;;16.30;97.30;;;;;;4953406;28;20642;-64
2024/03/15 09:45:43;;;;;;;3.83;3.00;;;16.40;97.30;;;;;;4976716;28;20182;-64
2024/03/15 09:48:12;;;;;;;4.80;2.97;;;16.50;97.30;;;;;;4952278;28;20801;-64
2024/03/15 09:50:39;;;;;;;4.43;2.70;;;16.60;97.30;;;;;;4943868;28;20344;-64
2024/03/15 09:53:07;;;;;;;3.53;3.40;;;16.80;97.30;;;;;;4961157;28;20553;-64
2024/03/15 09:55:33;;;;;;;2.47;1.93;;;17.00;97.20;;;;;;4971155;28;20545;-64
2024/03/15 09:57:59;;;;;;;3.30;3.10;;;17.20;96.90;;;;;;4971041;28;20762;-64
2024/03/15 10:00:24;;;;;;;3.60;3.40;;;17.50;96.10;;;;;;4970239;28;20448;-64
2024/03/15 10:02:54;;;;;;;7.10;3.37;;;17.80;95.40;;;;;;4961677;28;20669;-63
2024/03/15 10:05:21;;;;;;;3.10;2.67;;;18.00;95.10;;;;;;4954838;28;20182;-65
2024/03/15 10:07:50;;;;;;;10.70;3.40;;;18.10;93.40;;;;;;4970820;28;20525;-63
2024/03/15 10:10:16;;;;;;;1.70;1.60;;;18.10;92.50;;;;;;4953181;28;20426;-64
2024/03/15 10:12:44;;;;;;;4.50;2.90;;;18.20;93.70;;;;;;4954643;28;20834;-64
2024/03/15 10:15:12;;;;;;;3.53;1.47;;;18.40;92.50;;;;;;4970320;28;20461;-64
2024/03/15 10:17:39;;;;;;;4.83;2.90;;;18.60;92.10;;;;;;4970921;28;20425;-64
2024/03/15 10:20:18;;;;;;;9.23;3.53;;;18.30;91.50;;;;;;4953421;28;20430;-63
2024/03/15 10:22:45;;;;;;;3.40;2.13;;;18.20;92.10;;;;;;4953371;28;20425;-64
2024/03/15 10:25:15;;;;;;;2.30;2.10;;;18.20;91.90;;;;;;4953192;28;20768;-64
2024/03/15 10:27:59;;;;;;;4.00;1.67;;;18.30;91.50;;;;;;4953204;28;20429;-65
2024/03/15 10:30:28;;;;;;;4.10;2.90;;;18.40;90.90;;;;;;4970291;28;20449;-63
2024/03/15 10:32:55;;;;;;;3.43;2.87;;;18.20;90.60;;;;;;4970587;28;20410;-63
2024/03/15 10:35:22;;;;;;;3.10;2.13;;;18.40;91.70;;;;;;4954449;28;20552;-63
2024/03/15 10:37:49;;;;;;;2.07;1.67;;;18.30;91.10;;;;;;4953207;28;20452;-62
2024/03/15 10:40:16;;;;;;;1.60;1.50;;;18.00;91.60;;;;;;4957971;28;20454;-62
2024/03/15 10:42:42;;;;;;;3.53;1.80;;;17.80;92.40;;;;;;4961697;28;20427;-63
2024/03/15 10:45:13;;;;;;;2.10;1.80;;;17.90;93.10;;;;;;4960916;28;20427;-63
2024/03/15 10:47:40;;;;;;;2.87;2.10;;;18.00;92.40;;;;;;4966319;28;20418;-63
2024/03/15 10:50:11;;;;;;;6.63;3.33;;;18.20;92.50;;;;;;4960013;28;20524;-63
2024/03/15 10:52:45;;;;;;;4.13;2.30;;;18.20;92.10;;;;;;4938865;28;20465;-63
2024/03/15 10:55:14;;;;;;;4.17;2.17;;;18.40;92.30;;;;;;4949859;28;20469;-63
2024/03/15 10:57:40;;;;;;;2.67;1.90;;;18.70;92.00;;;;;;4938506;28;20422;-63
2024/03/15 11:00:14;;;;;;;4.53;2.87;;;18.90;91.40;;;;;;4939035;28;20437;-64
2024/03/15 11:02:41;;;;;;;2.97;2.20;;;19.00;90.70;;;;;;4938361;28;20587;-63
2024/03/15 11:05:12;;;;;;;8.53;2.73;;;19.10;91.00;;;;;;4951196;28;20430;-63
2024/03/15 11:07:38;;;;;;;4.27;2.20;;;19.20;89.80;;;;;;4950200;28;20422;-63
2024/03/15 11:10:09;;;;;;;3.23;2.27;;;19.30;90.30;;;;;;4958418;28;20450;-63
2024/03/15 11:12:37;;;;;;;3.07;2.83;;;19.20;90.00;;;;;;4941307;28;20229;-64
2024/03/15 11:15:18;;;;;;;1.93;1.83;;;19.30;89.80;;;;;;4953743;28;20505;-63
2024/03/15 11:17:44;;;;;;;1.73;1.63;;;19.40;89.40;;;;;;4959844;28;20425;-63
2024/03/15 11:20:13;;;;;;;3.20;1.80;;;19.10;89.00;;;;;;4948820;28;20423;-63
2024/03/15 11:22:39;;;;;;;3.50;2.23;;;19.00;89.00;;;;;;4944268;28;20725;-63
2024/03/15 11:25:07;;;;;;;2.63;2.43;;;19.20;89.40;;;;;;4940881;28;20526;-64
2024/03/15 11:27:58;;;;;;;3.27;2.60;;;19.30;88.90;;;;;;4955299;28;20502;-64
2024/03/15 11:30:27;;;;;;;6.60;2.50;;;19.30;88.40;;;;;;4943951;28;20457;-63
2024/03/15 11:32:54;;;;;;;1.37;1.30;;;19.30;88.40;;;;;;4956949;28;20488;-63
2024/03/15 11:35:21;;;;;;;4.20;1.93;;;19.40;89.10;;;;;;4940823;28;20561;-64
2024/03/15 11:37:47;;;;;;;3.43;3.10;;;19.60;87.90;;;;;;4956180;28;20888;-64
2024/03/15 11:40:12;;;;;;;3.73;2.83;;;19.70;88.10;;;;;;4953190;28;20429;-63
2024/03/15 11:42:38;;;;;;;3.23;2.17;;;19.80;87.40;;;;;;4955967;28;20504;-64
2024/03/15 11:45:04;;;;;;;3.10;2.57;;;19.70;86.80;;;;;;4947169;28;20286;-64
2024/03/15 11:47:30;;;;;;;2.23;2.03;;;19.90;87.10;;;;;;4960795;28;20194;-64
2024/03/15 11:49:56;;;;;;;4.10;2.10;;;19.80;86.00;;;;;;4953267;28;20698;-65
2024/03/15 11:52:22;;;;;;;8.27;2.23;;;19.90;86.30;;;;;;4953555;28;20731;-63
2024/03/15 11:54:54;;;;;;;2.53;1.80;;;19.90;86.50;;;;;;4936176;28;20474;-63
2024/03/15 11:57:20;;;;;;;4.07;2.00;;;19.80;86.10;;;;;;4953007;28;20185;-63
2024/03/15 11:59:47;;;;;;;1.97;1.87;;;20.10;86.30;;;;;;4939394;28;20440;-63
2024/03/15 12:02:12;;;;;;;3.37;1.63;;;20.40;86.30;;;;;;4956213;28;20442;-63
2024/03/15 12:04:38;;;;;;;1.77;1.67;;;20.70;85.80;;;;;;4960360;28;20417;-64
2024/03/15 12:07:06;;;;;;;2.10;1.80;;;20.40;85.00;;;;;;4963582;28;20217;-64
2024/03/15 12:09:32;;;;;;;2.00;1.50;;;20.00;85.90;;;;;;4954935;28;20186;-64
2024/03/15 12:11:58;;;;;;;2.50;1.73;;;19.60;86.60;;;;;;4951777;28;20467;-63
2024/03/15 12:14:23;;;;;;;3.33;2.17;;;19.40;87.60;;;;;;4979750;23;20501;-84
2024/03/15 12:16:49;;;;;;;2.00;1.43;;;19.20;87.60;;;;;;4987158;28;20684;-84
2024/03/15 12:19:15;;;;;;;2.93;2.13;;;18.90;88.30;;;;;;4972874;28;20195;-84
2024/03/15 12:21:41;;;;;;;1.93;1.87;;;18.80;89.00;;;;;;4970350;28;20314;-84
2024/03/15 12:24:09;;;;;;;4.50;1.67;;;18.70;89.60;;;;;;4964218;28;20202;-84
2024/03/15 12:26:35;;;;;;;2.30;1.60;;;18.60;89.50;;;;;;4956901;28;20418;-84
2024/03/15 12:29:01;;;;;;;3.37;2.60;;;18.50;89.30;;;;;;4961131;28;20425;-84
2024/03/15 12:31:27;;;;;;;3.63;2.17;;;18.50;89.50;;;;;;4956558;28;20179;-84
2024/03/15 12:33:52;;;;;;;1.53;1.50;;;18.40;89.60;;;;;;4955038;28;20199;-84
2024/03/15 12:36:18;;;;;;;2.53;1.77;;;18.30;88.90;;;;;;4954807;28;20202;-84
2024/03/15 12:38:44;;;;;;;3.43;1.77;;;18.20;89.20;;;;;;4972807;28;20174;-84
2024/03/15 12:41:10;;;;;;;3.33;1.40;;;18.10;89.70;;;;;;4954529;28;20472;-84
2024/03/15 12:43:36;;;;;;;1.30;1.17;;;18.00;90.00;;;;;;4954094;28;20198;-84
2024/03/15 12:46:08;;;;;;;2.10;1.67;;;18.00;90.00;;;;;;4973236;28;20763;-84
2024/03/15 12:48:34;;;;;;;1.50;1.40;;;17.90;89.40;;;;;;4972621;28;20197;-84
2024/03/15 12:51:01;;;;;;;1.27;1.27;;;17.90;89.30;;;;;;4956923;28;20425;-84
2024/03/15 12:53:26;;;;;;;0.97;0.93;;;17.80;89.40;;;;;;4953392;28;20198;-84
2024/03/15 12:55:52;;;;;;;1.10;1.00;;;17.80;89.50;;;;;;4972356;28;20453;-84
2024/03/15 12:58:17;;;;;;;1.77;1.67;;;17.80;89.80;;;;;;4956795;28;20170;-84
2024/03/15 13:00:43;;;;;;;1.00;0.90;;;17.70;90.60;;;;;;4955470;28;20245;-83
2024/03/15 13:03:10;;;;;;;1.00;0.90;;;17.60;92.00;;;;;;4955385;28;20562;-84
2024/03/15 13:05:36;;;;;;;1.37;1.30;;;17.50;94.60;;;;;;4954742;28;20182;-83
2024/03/15 13:08:02;;;;;;;1.00;0.90;;;17.30;93.80;;;;;;4954816;28;20426;-84
2024/03/15 13:10:28;;;;;;;1.10;1.10;;;17.30;93.60;;;;;;4971601;28;20425;-84
2024/03/15 13:12:57;;;;;;;0.90;0.80;;;17.40;94.40;;;;;;4954815;28;20492;-84
2024/03/15 13:15:23;;;;;;;1.87;1.77;;;17.40;93.00;;;;;;4955106;28;21023;-84
2024/03/15 13:17:50;;;;;;;1.20;1.10;;;17.50;93.50;;;;;;4973167;28;20504;-84
2024/03/15 13:20:16;;;;;;;3.10;1.47;;;17.50;93.00;;;;;;4955840;28;20425;-84
2024/03/15 13:22:45;;;;;;;1.17;0.90;;;17.70;92.10;;;;;;4972737;28;20476;-83
2024/03/15 13:25:15;;;;;;;1.40;1.30;;;18.50;91.50;;;;;;4955468;28;20206;-84
2024/03/15 13:27:41;;;;;;;1.40;1.10;;;19.00;89.60;;;;;;4955072;28;20421;-84
2024/03/15 13:30:15;;;;;;;1.67;1.10;;;19.40;88.20;;;;;;4973112;28;20521;-85
2024/03/15 13:32:41;;;;;;;1.00;0.90;;;19.30;88.40;;;;;;4971915;28;20703;-85
2024/03/15 13:35:17;;;;;;;4.20;2.00;;;19.10;88.70;;;;;;4954887;28;20474;-84
2024/03/15 13:37:44;;;;;;;4.00;1.47;;;19.40;88.50;;;;;;4951043;28;20433;-84
2024/03/15 13:40:15;;;;;;;2.90;1.20;;;19.10;89.30;;;;;;4955130;28;20942;-85
2024/03/15 13:42:43;;;;;;;1.67;1.33;;;18.80;89.30;;;;;;4955226;28;20509;-84
2024/03/15 13:45:15;;;;;;;1.20;1.10;;;18.50;89.30;;;;;;4955612;28;20536;-84
2024/03/15 13:47:41;;;;;;;1.10;1.00;;;18.40;90.00;;;;;;4954130;28;20426;-85
2024/03/15 13:50:10;;;;;;;2.17;1.50;;;18.20;90.00;;;;;;4959828;28;20440;-84
2024/03/15 13:52:36;;;;;;;1.00;1.00;;;18.20;90.70;;;;;;4972185;28;20481;-84
2024/03/15 13:55:07;;;;;;;2.00;1.43;;;18.40;90.60;;;;;;4953386;28;20466;-84
2024/03/15 13:57:35;;;;;;;1.30;1.20;;;18.60;90.30;;;;;;4954259;28;20644;-84
2024/03/15 14:00:00;;;;;;;3.47;1.57;;;18.80;90.00;;;;;;4954707;28;20434;-84
2024/03/15 14:02:26;;;;;;;1.70;1.63;;;18.90;89.20;;;;;;4954945;28;20441;-83
2024/03/15 14:04:51;;;;;;;5.80;1.70;;;19.00;89.30;;;;;;4954634;28;20281;-84
2024/03/15 14:07:17;;;;;;;1.63;1.60;;;19.40;88.50;;;;;;4954798;28;20189;-84
2024/03/15 14:09:42;;;;;;;1.77;1.57;;;19.40;88.20;;;;;;4954573;28;20604;-84
2024/03/15 14:12:08;;;;;;;1.33;1.23;;;18.90;88.20;;;;;;4954836;28;20194;-84
2024/03/15 14:14:33;;;;;;;2.17;0.93;;;18.80;88.80;;;;;;4971727;28;20236;-84
2024/03/15 14:16:59;;;;;;;0.83;0.83;;;18.60;88.90;;;;;;4955083;28;20225;-84
2024/03/15 14:19:24;;;;;;;1.17;1.07;;;18.50;89.30;;;;;;4955082;28;20665;-84
2024/03/15 14:21:50;;;;;;;1.13;1.03;;;18.70;89.50;;;;;;4954843;28;20187;-84
2024/03/15 14:24:15;;;;;;;1.60;1.50;;;18.80;89.40;;;;;;4972158;28;20650;-84
2024/03/15 14:26:41;;;;;;;1.73;1.53;;;19.00;88.80;;;;;;4954737;28;20178;-84
2024/03/15 14:29:08;;;;;;;1.53;1.43;;;18.70;89.00;;;;;;4954731;28;20779;-84
2024/03/15 14:31:33;;;;;;;0.90;0.80;;;18.30;89.70;;;;;;4971894;28;20183;-82
2024/03/15 14:33:59;;;;;;;0.97;0.87;;;18.00;90.60;;;;;;4954932;28;20453;-84
2024/03/15 14:36:28;;;;;;;1.27;1.17;;;17.80;91.20;;;;;;4946873;28;20215;-84
2024/03/15 14:38:54;;;;;;;3.77;1.47;;;17.80;91.50;;;;;;4939994;28;20230;-84
2024/03/15 14:41:19;;;;;;;1.90;1.43;;;17.80;91.70;;;;;;4967719;28;20414;-84
2024/03/15 14:43:45;;;;;;;1.67;1.07;;;17.80;92.00;;;;;;4946731;28;20445;-84
2024/03/15 14:46:11;;;;;;;1.17;1.07;;;17.80;92.20;;;;;;4940736;28;20369;-84
2024/03/15 14:48:36;;;;;;;1.90;1.80;;;17.70;92.20;;;;;;4960907;28;20183;-84
2024/03/15 14:51:02;;;;;;;0.90;0.90;;;17.70;92.40;;;;;;4935284;28;20179;-84
2024/03/15 14:53:28;;;;;;;1.40;1.30;;;17.60;92.20;;;;;;4943178;28;20226;-84
2024/03/15 14:55:53;;;;;;;1.30;1.20;;;17.60;92.40;;;;;;4935351;28;20466;-84
2024/03/15 14:58:19;;;;;;;2.77;1.40;;;17.60;92.40;;;;;;4956889;28;20204;-84
2024/03/15 15:00:48;;;;;;;1.27;1.23;;;17.60;92.40;;;;;;4947497;28;20556;-84
2024/03/15 15:03:13;;;;;;;1.17;0.90;;;17.50;92.00;;;;;;4965863;28;20246;-84
2024/03/15 15:05:39;;;;;;;2.03;1.67;;;17.50;92.60;;;;;;4936877;28;20423;-84
2024/03/15 15:08:08;;;;;;;1.63;1.43;;;17.50;92.60;;;;;;4961291;28;20252;-84
2024/03/15 15:10:40;;;;;;;2.20;1.17;;;17.50;92.20;;;;;;4969270;28;20436;-84
2024/03/15 15:13:05;;;;;;;2.53;1.87;;;17.50;92.60;;;;;;4959664;28;20429;-84
2024/03/15 15:15:31;;;;;;;0.90;0.90;;;17.50;92.60;;;;;;4937599;28;20467;-84
2024/03/15 15:17:57;;;;;;;1.00;0.90;;;17.40;92.40;;;;;;4939154;28;20657;-84
2024/03/15 15:20:22;;;;;;;1.90;1.37;;;17.40;92.60;;;;;;4972065;28;20415;-85
2024/03/15 15:22:49;;;;;;;2.70;1.73;;;17.40;92.80;;;;;;4938266;28;21014;-85
2024/03/15 15:25:15;;;;;;;1.67;1.50;;;17.40;93.10;;;;;;4954337;28;20684;-85
2024/03/15 15:27:43;;;;;;;2.27;1.60;;;17.30;93.30;;;;;;4952805;28;20477;-84
2024/03/15 15:30:10;;;;;;;0.93;0.83;;;17.20;93.40;;;;;;4940930;28;20229;-84
2024/03/15 15:32:36;;;;;;;1.10;1.00;;;17.20;93.50;;;;;;4945773;28;20513;-85
2024/03/15 15:35:03;;;;;;;1.30;1.20;;;17.20;93.70;;;;;;4935940;28;20465;-84
2024/03/15 15:37:30;;;;;;;1.20;1.07;;;17.20;94.10;;;;;;4965071;28;20430;-84
2024/03/15 15:39:57;;;;;;;0.70;0.70;;;17.20;93.90;;;;;;4956444;28;20410;-84
2024/03/15 15:42:22;;;;;;;1.10;1.00;;;17.20;93.90;;;;;;4939901;28;20486;-84
2024/03/15 15:44:48;;;;;;;2.73;1.40;;;17.20;94.10;;;;;;4955667;28;20430;-84
2024/03/15 15:47:14;;;;;;;1.33;1.00;;;17.20;94.20;;;;;;4965474;28;20178;-84
2024/03/15 15:49:43;;;;;;;1.83;1.73;;;17.20;93.40;;;;;;4951267;28;20201;-84
2024/03/15 15:52:13;;;;;;;0.97;0.87;;;17.10;92.90;;;;;;4942998;28;20510;-84
2024/03/15 15:54:39;;;;;;;3.27;1.30;;;17.10;93.10;;;;;;4936213;28;20989;-84
2024/03/15 15:57:05;;;;;;;1.40;1.30;;;17.10;92.90;;;;;;4953200;28;20419;-84
2024/03/15 15:59:30;;;;;;;1.30;1.27;;;17.10;92.90;;;;;;4939228;28;20728;-85
2024/03/15 16:01:56;;;;;;;1.27;1.17;;;17.10;92.30;;;;;;4964326;28;20283;-85
2024/03/15 16:04:23;;;;;;;1.17;1.07;;;17.10;92.30;;;;;;4939708;28;20209;-84
2024/03/15 16:06:55;;;;;;;1.60;1.20;;;17.00;92.50;;;;;;4940648;28;20218;-84
2024/03/15 16:09:22;;;;;;;1.03;0.93;;;17.00;92.30;;;;;;4939774;28;20426;-85
2024/03/15 16:11:48;;;;;;;1.90;0.90;;;17.00;92.40;;;;;;4956270;28;20464;-85
2024/03/15 16:14:13;;;;;;;1.53;1.00;;;17.00;92.30;;;;;;4944646;28;20466;-84
2024/03/15 16:16:39;;;;;;;1.00;0.90;;;17.00;92.70;;;;;;4940941;28;20211;-85
2024/03/15 16:19:06;;;;;;;0.93;0.90;;;16.90;92.90;;;;;;4963227;28;20258;-85
2024/03/15 16:21:32;;;;;;;2.50;1.33;;;16.80;93.00;;;;;;4938607;28;20184;-85
2024/03/15 16:23:57;;;;;;;1.23;1.13;;;16.80;93.00;;;;;;4948033;28;20477;-85
2024/03/15 16:26:23;;;;;;;1.20;1.20;;;16.70;93.60;;;;;;4965049;28;20193;-85
2024/03/15 16:28:48;;;;;;;1.20;1.10;;;16.70;93.60;;;;;;4956739;28;20240;-85
2024/03/15 16:31:14;;;;;;;1.37;1.00;;;16.60;93.80;;;;;;4973668;28;20190;-85
2024/03/15 16:33:39;;;;;;;1.63;1.53;;;16.50;93.90;;;;;;4948998;28;20206;-84
2024/03/15 16:36:05;;;;;;;3.40;1.30;;;16.50;94.20;;;;;;4953113;28;20696;-84
2024/03/15 16:38:31;;;;;;;0.90;0.80;;;16.40;94.40;;;;;;4962160;28;20662;-84
2024/03/15 16:40:56;;;;;;;3.87;2.07;;;16.40;94.60;;;;;;4950078;28;20170;-85
2024/03/15 16:43:23;;;;;;;2.10;1.27;;;16.30;94.80;;;;;;4974268;28;20716;-85
2024/03/15 16:45:49;;;;;;;1.40;1.20;;;16.30;94.80;;;;;;4948274;28;20191;-85
2024/03/15 16:48:17;;;;;;;2.67;2.47;;;16.20;95.30;;;;;;4961830;28;20433;-85
2024/03/15 16:50:44;;;;;;;1.33;1.00;;;16.20;95.30;;;;;;4949712;28;20203;-84
2024/03/15 16:53:10;;;;;;;1.13;1.03;;;16.10;95.80;;;;;;4969145;28;20459;-85
2024/03/15 16:55:38;;;;;;;1.23;1.20;;;16.10;95.90;;;;;;4947605;28;20470;-85
2024/03/15 16:58:06;;;;;;;1.00;0.90;;;16.00;96.00;;;;;;4956298;28;20185;-85
2024/03/15 17:00:34;;;;;;;4.43;1.40;;;16.00;96.30;;;;;;4949885;28;20441;-85
2024/03/15 17:03:03;;;;;;;2.40;1.77;;;16.00;96.50;;;;;;4953064;28;20422;-85
2024/03/15 17:05:30;;;;;;;1.20;1.10;;;15.90;96.80;;;;;;4939995;28;20419;-84
2024/03/15 17:07:57;;;;;;;5.37;1.80;;;15.90;97.00;;;;;;4940786;28;20465;-85
2024/03/15 17:10:23;;;;;;;1.13;1.03;;;15.90;97.20;;;;;;4952434;28;20424;-84
2024/03/15 17:12:49;;;;;;;1.50;1.40;;;15.90;97.30;;;;;;4948330;28;21015;-84
2024/03/15 17:15:15;;;;;;;1.40;1.30;;;15.90;97.30;;;;;;4950862;28;20620;-84
2024/03/15 17:17:40;;;;;;;0.87;0.83;;;15.80;97.30;;;;;;4950448;28;20946;-84
2024/03/15 17:20:06;;;;;;;1.50;1.27;;;15.80;97.30;;;;;;4957748;28;20171;-85
2024/03/15 17:22:32;;;;;;;1.13;1.00;;;15.80;97.30;;;;;;4984862;28;20178;-84
2024/03/15 17:24:57;;;;;;;1.77;1.70;;;15.80;97.30;;;;;;4953668;28;20448;-85
2024/03/15 17:27:24;;;;;;;1.57;1.53;;;15.70;97.30;;;;;;4960700;28;20184;-85
2024/03/15 17:29:49;;;;;;;1.50;1.40;;;15.70;97.30;;;;;;4954746;28;20210;-85
2024/03/15 17:32:15;;;;;;;2.00;1.90;;;15.60;97.30;;;;;;4981432;28;20430;-84
2024/03/15 17:34:40;;;;;;;1.00;0.90;;;15.60;97.30;;;;;;4956644;28;20221;-82
2024/03/15 17:37:06;;;;;;;1.60;1.50;;;15.60;97.30;;;;;;4954020;28;20238;-85
2024/03/15 17:39:34;;;;;;;2.07;1.93;;;15.60;97.30;;;;;;4951921;28;20186;-84
2024/03/15 17:42:00;;;;;;;2.23;1.50;;;15.50;97.30;;;;;;4947058;28;20217;-84
2024/03/15 17:44:25;;;;;;;0.90;0.80;;;15.50;97.30;;;;;;4952033;28;20465;-84
2024/03/15 17:46:50;;;;;;;1.17;1.07;;;15.40;97.30;;;;;;4948675;28;20244;-84
2024/03/15 17:49:16;;;;;;;0.93;0.83;;;15.30;97.30;;;;;;4954448;28;20179;-85
2024/03/15 17:51:41;;;;;;;2.13;1.57;;;15.20;97.30;;;;;;4954572;28;20190;-84
2024/03/15 17:54:07;;;;;;;1.67;1.57;;;15.20;97.30;;;;;;4951382;28;20210;-84